sensor_id;sensor_type;location;lat;lon;timestamp;temperature;humidity
21047;DHT22;10682;50.874;3.656;2022-09-03T00:00:54;18.20;99.90
21047;DHT22;10682;50.874;3.656;2022-09-03T00:03:36;18.20;99.90
21047;DHT22;10682;50.874;3.656;2022-09-03T00:06:25;18.20;99.90
21047;DHT22;10682;50.874;3.656;2022-09-03T00:09:12;18.30;99.90
21047;DHT22;10682;50.874;3.656;2022-09-03T00:14:36;18.20;99.90
21047;DHT22;10682;50.874;3.656;2022-09-03T00:17:16;18.20;99.90
21047;DHT22;10682;50.874;3.656;2022-09-03T00:19:59;18.20;99.90
21047;DHT22;10682;50.874;3.656;2022-09-03T00:22:34;18.20;99.90
21047;DHT22;10682;50.874;3.656;2022-09-03T00:25:08;18.20;99.90
21047;DHT22;10682;50.874;3.656;2022-09-03T00:27:41;18.20;99.90
21047;DHT22;10682;50.874;3.656;2022-09-03T00:30:13;18.10;99.90
21047;DHT22;10682;50.874;3.656;2022-09-03T00:35:29;18.00;99.90
21047;DHT22;10682;50.874;3.656;2022-09-03T00:38:01;18.00;99.90
21047;DHT22;10682;50.874;3.656;2022-09-03T00:58:19;17.70;99.90
21047;DHT22;10682;50.874;3.656;2022-09-03T01:00:38;17.60;99.90
21047;DHT22;10682;50.874;3.656;2022-09-03T01:06:48;17.50;99.90
21047;DHT22;10682;50.874;3.656;2022-09-03T01:09:29;17.50;99.90
21047;DHT22;10682;50.874;3.656;2022-09-03T01:17:58;17.60;99.90
21047;DHT22;10682;50.874;3.656;2022-09-03T01:26:28;17.50;99.90
21047;DHT22;10682;50.874;3.656;2022-09-03T01:32:03;17.40;99.90
21047;DHT22;10682;50.874;3.656;2022-09-03T01:34:58;17.40;99.90
21047;DHT22;10682;50.874;3.656;2022-09-03T01:59:17;17.40;99.90
21047;DHT22;10682;50.874;3.656;2022-09-03T02:02:09;17.40;99.90
21047;DHT22;10682;50.874;3.656;2022-09-03T02:04:57;17.40;99.90
21047;DHT22;10682;50.874;3.656;2022-09-03T02:07:31;17.40;99.90
21047;DHT22;10682;50.874;3.656;2022-09-03T02:10:06;17.50;99.90
21047;DHT22;10682;50.874;3.656;2022-09-03T02:12:38;17.50;99.90
21047;DHT22;10682;50.874;3.656;2022-09-03T02:15:15;17.50;99.90
21047;DHT22;10682;50.874;3.656;2022-09-03T02:17:46;17.50;99.90
21047;DHT22;10682;50.874;3.656;2022-09-03T02:20:19;17.60;99.90
21047;DHT22;10682;50.874;3.656;2022-09-03T02:22:48;17.50;99.90
21047;DHT22;10682;50.874;3.656;2022-09-03T02:25:16;17.60;99.90
21047;DHT22;10682;50.874;3.656;2022-09-03T02:27:43;17.60;99.90
21047;DHT22;10682;50.874;3.656;2022-09-03T02:30:11;17.60;99.90
21047;DHT22;10682;50.874;3.656;2022-09-03T02:32:38;17.70;99.90
21047;DHT22;10682;50.874;3.656;2022-09-03T02:35:05;17.70;99.90
21047;DHT22;10682;50.874;3.656;2022-09-03T02:37:33;17.70;99.90
21047;DHT22;10682;50.874;3.656;2022-09-03T02:40:00;17.70;99.90
21047;DHT22;10682;50.874;3.656;2022-09-03T02:42:32;17.70;99.90
21047;DHT22;10682;50.874;3.656;2022-09-03T02:45:23;17.70;99.90
21047;DHT22;10682;50.874;3.656;2022-09-03T02:47:55;17.70;99.90
21047;DHT22;10682;50.874;3.656;2022-09-03T02:50:26;17.70;99.90
21047;DHT22;10682;50.874;3.656;2022-09-03T02:52:53;17.70;99.90
21047;DHT22;10682;50.874;3.656;2022-09-03T02:55:20;17.60;99.90
21047;DHT22;10682;50.874;3.656;2022-09-03T02:57:47;17.60;99.90
21047;DHT22;10682;50.874;3.656;2022-09-03T03:00:14;17.50;99.90
21047;DHT22;10682;50.874;3.656;2022-09-03T03:02:41;17.50;99.90
21047;DHT22;10682;50.874;3.656;2022-09-03T03:05:12;17.50;99.90
21047;DHT22;10682;50.874;3.656;2022-09-03T03:07:44;17.50;99.90
21047;DHT22;10682;50.874;3.656;2022-09-03T03:10:11;17.40;99.90
21047;DHT22;10682;50.874;3.656;2022-09-03T03:12:38;17.40;99.90
21047;DHT22;10682;50.874;3.656;2022-09-03T03:15:05;17.50;99.90
21047;DHT22;10682;50.874;3.656;2022-09-03T03:17:33;17.50;99.90
21047;DHT22;10682;50.874;3.656;2022-09-03T03:20:00;17.50;99.90
21047;DHT22;10682;50.874;3.656;2022-09-03T03:22:26;17.60;99.90
21047;DHT22;10682;50.874;3.656;2022-09-03T03:24:54;17.60;99.90
21047;DHT22;10682;50.874;3.656;2022-09-03T03:27:23;17.60;99.90
21047;DHT22;10682;50.874;3.656;2022-09-03T03:29:50;17.50;99.90
21047;DHT22;10682;50.874;3.656;2022-09-03T03:32:17;17.50;99.90
21047;DHT22;10682;50.874;3.656;2022-09-03T03:34:44;17.50;99.90
21047;DHT22;10682;50.874;3.656;2022-09-03T03:37:11;17.40;99.90
21047;DHT22;10682;50.874;3.656;2022-09-03T03:39:38;17.40;99.90
21047;DHT22;10682;50.874;3.656;2022-09-03T03:42:05;17.40;99.90
21047;DHT22;10682;50.874;3.656;2022-09-03T03:44:35;17.40;99.90
21047;DHT22;10682;50.874;3.656;2022-09-03T03:47:02;17.40;99.90
21047;DHT22;10682;50.874;3.656;2022-09-03T03:49:31;17.40;99.90
21047;DHT22;10682;50.874;3.656;2022-09-03T03:51:58;17.30;99.90
21047;DHT22;10682;50.874;3.656;2022-09-03T03:54:25;17.30;99.90
21047;DHT22;10682;50.874;3.656;2022-09-03T03:56:52;17.30;99.90
21047;DHT22;10682;50.874;3.656;2022-09-03T03:59:21;17.30;99.90
21047;DHT22;10682;50.874;3.656;2022-09-03T04:01:48;17.30;99.90
21047;DHT22;10682;50.874;3.656;2022-09-03T04:04:16;17.20;99.90
21047;DHT22;10682;50.874;3.656;2022-09-03T04:06:43;17.20;99.90
21047;DHT22;10682;50.874;3.656;2022-09-03T04:09:10;17.20;99.90
21047;DHT22;10682;50.874;3.656;2022-09-03T04:11:37;17.20;99.90
21047;DHT22;10682;50.874;3.656;2022-09-03T04:14:04;17.20;99.90
21047;DHT22;10682;50.874;3.656;2022-09-03T04:16:31;17.30;99.90
21047;DHT22;10682;50.874;3.656;2022-09-03T04:18:58;17.20;99.90
21047;DHT22;10682;50.874;3.656;2022-09-03T04:21:27;17.20;99.90
21047;DHT22;10682;50.874;3.656;2022-09-03T04:23:56;17.20;99.90
21047;DHT22;10682;50.874;3.656;2022-09-03T04:26:26;17.30;99.90
21047;DHT22;10682;50.874;3.656;2022-09-03T04:29:03;17.20;99.90
21047;DHT22;10682;50.874;3.656;2022-09-03T04:31:32;17.20;99.90
21047;DHT22;10682;50.874;3.656;2022-09-03T04:34:00;17.20;99.90
21047;DHT22;10682;50.874;3.656;2022-09-03T04:36:29;17.20;99.90
21047;DHT22;10682;50.874;3.656;2022-09-03T04:38:59;17.20;99.90
21047;DHT22;10682;50.874;3.656;2022-09-03T04:41:29;17.20;99.90
21047;DHT22;10682;50.874;3.656;2022-09-03T04:43:58;17.20;99.90
21047;DHT22;10682;50.874;3.656;2022-09-03T04:46:27;17.20;99.90
21047;DHT22;10682;50.874;3.656;2022-09-03T04:48:59;17.20;99.90
21047;DHT22;10682;50.874;3.656;2022-09-03T04:51:27;17.20;99.90
21047;DHT22;10682;50.874;3.656;2022-09-03T04:53:57;17.20;99.90
21047;DHT22;10682;50.874;3.656;2022-09-03T04:56:27;17.20;99.90
21047;DHT22;10682;50.874;3.656;2022-09-03T04:58:59;17.20;99.90
21047;DHT22;10682;50.874;3.656;2022-09-03T05:01:29;17.20;99.90
21047;DHT22;10682;50.874;3.656;2022-09-03T05:03:58;17.20;99.90
21047;DHT22;10682;50.874;3.656;2022-09-03T05:06:27;17.20;99.90
21047;DHT22;10682;50.874;3.656;2022-09-03T05:08:55;17.20;99.90
21047;DHT22;10682;50.874;3.656;2022-09-03T05:11:24;17.10;99.90
21047;DHT22;10682;50.874;3.656;2022-09-03T05:13:54;17.10;99.90
21047;DHT22;10682;50.874;3.656;2022-09-03T05:16:24;17.10;99.90
21047;DHT22;10682;50.874;3.656;2022-09-03T05:18:53;17.10;99.90
21047;DHT22;10682;50.874;3.656;2022-09-03T05:21:22;17.10;99.90
21047;DHT22;10682;50.874;3.656;2022-09-03T05:23:51;17.10;99.90
21047;DHT22;10682;50.874;3.656;2022-09-03T05:26:21;17.00;99.90
21047;DHT22;10682;50.874;3.656;2022-09-03T05:28:56;17.00;99.90
21047;DHT22;10682;50.874;3.656;2022-09-03T05:31:27;17.00;99.90
21047;DHT22;10682;50.874;3.656;2022-09-03T05:33:59;17.00;99.90
21047;DHT22;10682;50.874;3.656;2022-09-03T05:36:31;17.00;99.90
21047;DHT22;10682;50.874;3.656;2022-09-03T05:39:03;16.90;99.90
21047;DHT22;10682;50.874;3.656;2022-09-03T05:41:31;16.90;99.90
21047;DHT22;10682;50.874;3.656;2022-09-03T05:43:59;16.90;99.90
21047;DHT22;10682;50.874;3.656;2022-09-03T05:46:29;16.90;99.90
21047;DHT22;10682;50.874;3.656;2022-09-03T05:48:59;16.90;99.90
21047;DHT22;10682;50.874;3.656;2022-09-03T05:51:28;16.90;99.90
21047;DHT22;10682;50.874;3.656;2022-09-03T05:53:56;16.80;99.90
21047;DHT22;10682;50.874;3.656;2022-09-03T05:56:25;16.80;99.90
21047;DHT22;10682;50.874;3.656;2022-09-03T05:58:56;16.80;99.90
21047;DHT22;10682;50.874;3.656;2022-09-03T06:01:30;16.90;99.90
21047;DHT22;10682;50.874;3.656;2022-09-03T06:04:03;17.00;99.90
21047;DHT22;10682;50.874;3.656;2022-09-03T06:06:33;17.10;99.90
21047;DHT22;10682;50.874;3.656;2022-09-03T06:09:07;17.20;99.90
21047;DHT22;10682;50.874;3.656;2022-09-03T06:11:37;17.30;99.90
21047;DHT22;10682;50.874;3.656;2022-09-03T06:14:09;17.40;99.90
21047;DHT22;10682;50.874;3.656;2022-09-03T06:16:44;17.50;99.90
21047;DHT22;10682;50.874;3.656;2022-09-03T06:19:12;17.60;99.90
21047;DHT22;10682;50.874;3.656;2022-09-03T06:21:42;17.70;99.90
21047;DHT22;10682;50.874;3.656;2022-09-03T06:24:12;17.80;99.90
21047;DHT22;10682;50.874;3.656;2022-09-03T06:26:41;17.90;99.90
21047;DHT22;10682;50.874;3.656;2022-09-03T06:29:09;17.90;99.90
21047;DHT22;10682;50.874;3.656;2022-09-03T06:31:37;18.00;99.90
21047;DHT22;10682;50.874;3.656;2022-09-03T06:34:05;18.10;99.90
21047;DHT22;10682;50.874;3.656;2022-09-03T06:36:32;18.10;99.90
21047;DHT22;10682;50.874;3.656;2022-09-03T06:38:59;18.20;99.90
21047;DHT22;10682;50.874;3.656;2022-09-03T06:41:29;18.20;99.90
21047;DHT22;10682;50.874;3.656;2022-09-03T06:44:05;18.20;99.90
21047;DHT22;10682;50.874;3.656;2022-09-03T06:46:38;18.30;99.90
21047;DHT22;10682;50.874;3.656;2022-09-03T06:49:08;18.30;99.90
21047;DHT22;10682;50.874;3.656;2022-09-03T06:51:37;18.40;99.90
21047;DHT22;10682;50.874;3.656;2022-09-03T06:54:06;18.50;99.90
21047;DHT22;10682;50.874;3.656;2022-09-03T06:56:35;18.60;99.90
21047;DHT22;10682;50.874;3.656;2022-09-03T06:59:12;18.70;99.90
21047;DHT22;10682;50.874;3.656;2022-09-03T07:01:41;18.80;99.90
21047;DHT22;10682;50.874;3.656;2022-09-03T07:04:13;18.90;99.90
21047;DHT22;10682;50.874;3.656;2022-09-03T07:06:45;19.00;99.90
21047;DHT22;10682;50.874;3.656;2022-09-03T07:09:13;19.10;99.90
21047;DHT22;10682;50.874;3.656;2022-09-03T07:11:41;19.20;99.90
21047;DHT22;10682;50.874;3.656;2022-09-03T07:14:13;19.30;99.90
21047;DHT22;10682;50.874;3.656;2022-09-03T07:16:43;19.20;99.90
21047;DHT22;10682;50.874;3.656;2022-09-03T07:19:11;19.20;99.90
21047;DHT22;10682;50.874;3.656;2022-09-03T07:21:39;19.30;99.90
21047;DHT22;10682;50.874;3.656;2022-09-03T07:24:14;19.30;99.90
21047;DHT22;10682;50.874;3.656;2022-09-03T07:26:41;19.30;99.90
21047;DHT22;10682;50.874;3.656;2022-09-03T07:29:15;19.30;99.90
21047;DHT22;10682;50.874;3.656;2022-09-03T07:31:46;19.40;99.90
21047;DHT22;10682;50.874;3.656;2022-09-03T07:34:17;19.50;99.90
21047;DHT22;10682;50.874;3.656;2022-09-03T07:36:46;19.50;99.90
21047;DHT22;10682;50.874;3.656;2022-09-03T07:39:16;19.50;99.90
21047;DHT22;10682;50.874;3.656;2022-09-03T07:41:44;19.60;99.90
21047;DHT22;10682;50.874;3.656;2022-09-03T07:44:13;19.70;99.90
21047;DHT22;10682;50.874;3.656;2022-09-03T07:46:44;19.80;99.90
21047;DHT22;10682;50.874;3.656;2022-09-03T07:49:13;19.90;99.90
21047;DHT22;10682;50.874;3.656;2022-09-03T07:51:40;19.90;99.90
21047;DHT22;10682;50.874;3.656;2022-09-03T07:54:09;20.10;99.90
21047;DHT22;10682;50.874;3.656;2022-09-03T07:56:38;20.30;99.90
21047;DHT22;10682;50.874;3.656;2022-09-03T07:59:06;20.70;99.90
21047;DHT22;10682;50.874;3.656;2022-09-03T08:01:35;21.70;99.90
21047;DHT22;10682;50.874;3.656;2022-09-03T08:04:04;22.20;99.90
21047;DHT22;10682;50.874;3.656;2022-09-03T08:06:38;22.30;99.90
21047;DHT22;10682;50.874;3.656;2022-09-03T08:09:08;22.20;99.90
21047;DHT22;10682;50.874;3.656;2022-09-03T08:11:38;22.00;99.90
21047;DHT22;10682;50.874;3.656;2022-09-03T08:14:09;21.70;99.90
21047;DHT22;10682;50.874;3.656;2022-09-03T08:16:44;21.50;99.90
21047;DHT22;10682;50.874;3.656;2022-09-03T08:19:16;21.30;99.90
21047;DHT22;10682;50.874;3.656;2022-09-03T08:21:44;21.20;99.90
21047;DHT22;10682;50.874;3.656;2022-09-03T08:24:13;21.20;99.90
21047;DHT22;10682;50.874;3.656;2022-09-03T08:26:41;21.30;99.90
21047;DHT22;10682;50.874;3.656;2022-09-03T08:29:16;21.30;99.90
21047;DHT22;10682;50.874;3.656;2022-09-03T08:31:44;21.30;99.90
21047;DHT22;10682;50.874;3.656;2022-09-03T08:34:11;21.40;99.90
21047;DHT22;10682;50.874;3.656;2022-09-03T08:36:40;21.40;99.90
21047;DHT22;10682;50.874;3.656;2022-09-03T08:39:08;21.30;99.90
21047;DHT22;10682;50.874;3.656;2022-09-03T08:41:59;21.30;99.90
21047;DHT22;10682;50.874;3.656;2022-09-03T08:44:51;21.30;99.90
21047;DHT22;10682;50.874;3.656;2022-09-03T08:52:56;21.50;99.90
21047;DHT22;10682;50.874;3.656;2022-09-03T08:55:34;21.60;99.90
21047;DHT22;10682;50.874;3.656;2022-09-03T08:58:13;21.80;99.90
21047;DHT22;10682;50.874;3.656;2022-09-03T09:09:46;22.40;99.90
21047;DHT22;10682;50.874;3.656;2022-09-03T09:20:52;23.30;99.90
21047;DHT22;10682;50.874;3.656;2022-09-03T09:26:03;23.80;99.90
21047;DHT22;10682;50.874;3.656;2022-09-03T09:28:35;24.00;99.90
21047;DHT22;10682;50.874;3.656;2022-09-03T09:31:09;24.00;99.90
21047;DHT22;10682;50.874;3.656;2022-09-03T09:33:41;24.00;99.90
21047;DHT22;10682;50.874;3.656;2022-09-03T09:36:11;23.90;99.90
21047;DHT22;10682;50.874;3.656;2022-09-03T09:38:43;24.00;99.90
21047;DHT22;10682;50.874;3.656;2022-09-03T09:41:16;24.20;99.90
21047;DHT22;10682;50.874;3.656;2022-09-03T09:43:46;24.20;99.90
21047;DHT22;10682;50.874;3.656;2022-09-03T09:46:22;24.30;99.90
21047;DHT22;10682;50.874;3.656;2022-09-03T09:48:54;24.30;99.90
21047;DHT22;10682;50.874;3.656;2022-09-03T09:51:25;24.20;99.90
21047;DHT22;10682;50.874;3.656;2022-09-03T09:54:12;24.10;99.90
21047;DHT22;10682;50.874;3.656;2022-09-03T09:56:44;24.00;99.90
21047;DHT22;10682;50.874;3.656;2022-09-03T09:59:13;23.90;99.90
21047;DHT22;10682;50.874;3.656;2022-09-03T10:01:42;24.00;99.90
21047;DHT22;10682;50.874;3.656;2022-09-03T10:04:23;24.20;99.90
21047;DHT22;10682;50.874;3.656;2022-09-03T10:10:04;24.50;99.90
21047;DHT22;10682;50.874;3.656;2022-09-03T10:12:39;24.50;99.90
21047;DHT22;10682;50.874;3.656;2022-09-03T10:15:11;24.70;99.90
21047;DHT22;10682;50.874;3.656;2022-09-03T10:21:29;24.70;99.90
21047;DHT22;10682;50.874;3.656;2022-09-03T10:27:22;24.90;99.90
21047;DHT22;10682;50.874;3.656;2022-09-03T10:29:49;25.00;99.90
21047;DHT22;10682;50.874;3.656;2022-09-03T10:35:10;24.90;99.90
21047;DHT22;10682;50.874;3.656;2022-09-03T10:38:15;25.00;99.90
21047;DHT22;10682;50.874;3.656;2022-09-03T10:46:30;25.80;99.90
21047;DHT22;10682;50.874;3.656;2022-09-03T10:52:08;25.90;99.90
21047;DHT22;10682;50.874;3.656;2022-09-03T10:54:51;25.60;99.90
21047;DHT22;10682;50.874;3.656;2022-09-03T10:57:41;25.30;99.90
21047;DHT22;10682;50.874;3.656;2022-09-03T11:00:31;25.10;99.90
21047;DHT22;10682;50.874;3.656;2022-09-03T11:06:10;25.70;99.90
21047;DHT22;10682;50.874;3.656;2022-09-03T11:08:46;25.80;99.90
21047;DHT22;10682;50.874;3.656;2022-09-03T11:11:25;25.90;99.90
21047;DHT22;10682;50.874;3.656;2022-09-03T11:14:09;25.90;99.90
21047;DHT22;10682;50.874;3.656;2022-09-03T11:16:41;25.90;99.90
21047;DHT22;10682;50.874;3.656;2022-09-03T11:19:30;26.10;99.90
21047;DHT22;10682;50.874;3.656;2022-09-03T11:22:04;26.30;99.90
21047;DHT22;10682;50.874;3.656;2022-09-03T11:24:32;26.30;99.90
21047;DHT22;10682;50.874;3.656;2022-09-03T11:30:46;26.10;99.90
21047;DHT22;10682;50.874;3.656;2022-09-03T11:32:58;26.10;99.90
21047;DHT22;10682;50.874;3.656;2022-09-03T11:35:36;26.50;99.90
21047;DHT22;10682;50.874;3.656;2022-09-03T11:41:11;26.90;99.90
21047;DHT22;10682;50.874;3.656;2022-09-03T11:43:42;27.00;99.90
21047;DHT22;10682;50.874;3.656;2022-09-03T11:48:54;27.00;99.90
21047;DHT22;10682;50.874;3.656;2022-09-03T11:51:41;26.90;99.90
21047;DHT22;10682;50.874;3.656;2022-09-03T11:56:40;27.10;99.90
21047;DHT22;10682;50.874;3.656;2022-09-03T12:04:34;27.40;99.90
21047;DHT22;10682;50.874;3.656;2022-09-03T12:14:04;26.50;99.90
21047;DHT22;10682;50.874;3.656;2022-09-03T12:16:59;27.10;99.90
21047;DHT22;10682;50.874;3.656;2022-09-03T12:20:09;27.60;99.90
21047;DHT22;10682;50.874;3.656;2022-09-03T12:22:37;27.80;99.90
21047;DHT22;10682;50.874;3.656;2022-09-03T12:25:13;28.10;99.90
21047;DHT22;10682;50.874;3.656;2022-09-03T12:27:44;28.40;99.90
21047;DHT22;10682;50.874;3.656;2022-09-03T12:30:21;28.30;99.90
21047;DHT22;10682;50.874;3.656;2022-09-03T12:32:49;28.30;99.90
21047;DHT22;10682;50.874;3.656;2022-09-03T12:35:20;27.80;99.90
21047;DHT22;10682;50.874;3.656;2022-09-03T12:38:12;27.20;99.90
21047;DHT22;10682;50.874;3.656;2022-09-03T12:40:44;26.80;99.90
21047;DHT22;10682;50.874;3.656;2022-09-03T12:43:31;26.80;99.90
21047;DHT22;10682;50.874;3.656;2022-09-03T12:46:04;27.00;99.90
21047;DHT22;10682;50.874;3.656;2022-09-03T12:48:36;27.00;99.90
21047;DHT22;10682;50.874;3.656;2022-09-03T12:51:06;27.00;99.90
21047;DHT22;10682;50.874;3.656;2022-09-03T12:53:53;26.70;99.90
21047;DHT22;10682;50.874;3.656;2022-09-03T12:56:21;27.00;99.90
21047;DHT22;10682;50.874;3.656;2022-09-03T12:58:49;27.30;99.90
21047;DHT22;10682;50.874;3.656;2022-09-03T13:01:26;27.40;99.90
21047;DHT22;10682;50.874;3.656;2022-09-03T13:04:13;27.80;99.90
21047;DHT22;10682;50.874;3.656;2022-09-03T13:07:05;27.90;99.90
21047;DHT22;10682;50.874;3.656;2022-09-03T13:09:39;27.80;99.90
21047;DHT22;10682;50.874;3.656;2022-09-03T13:12:29;28.00;99.90
21047;DHT22;10682;50.874;3.656;2022-09-03T13:15:08;28.20;99.90
21047;DHT22;10682;50.874;3.656;2022-09-03T13:18:24;28.10;99.90
21047;DHT22;10682;50.874;3.656;2022-09-03T13:21:14;28.20;99.90
21047;DHT22;10682;50.874;3.656;2022-09-03T13:24:13;28.40;99.90
21047;DHT22;10682;50.874;3.656;2022-09-03T13:29:36;28.80;99.90
21047;DHT22;10682;50.874;3.656;2022-09-03T13:41:08;27.00;99.90
21047;DHT22;10682;50.874;3.656;2022-09-03T13:43:57;26.60;99.90
21047;DHT22;10682;50.874;3.656;2022-09-03T13:52:37;26.90;99.90
21047;DHT22;10682;50.874;3.656;2022-09-03T13:55:47;27.40;99.90
21047;DHT22;10682;50.874;3.656;2022-09-03T14:03:33;27.60;99.90
21047;DHT22;10682;50.874;3.656;2022-09-03T14:15:21;28.00;99.90
21047;DHT22;10682;50.874;3.656;2022-09-03T14:21:06;28.40;99.90
21047;DHT22;10682;50.874;3.656;2022-09-03T14:23:57;28.40;99.90
21047;DHT22;10682;50.874;3.656;2022-09-03T14:26:32;28.40;99.90
21047;DHT22;10682;50.874;3.656;2022-09-03T14:31:56;27.90;99.90
21047;DHT22;10682;50.874;3.656;2022-09-03T14:40:28;27.30;99.90
21047;DHT22;10682;50.874;3.656;2022-09-03T14:51:43;27.00;99.90
21047;DHT22;10682;50.874;3.656;2022-09-03T14:54:44;27.00;99.90
21047;DHT22;10682;50.874;3.656;2022-09-03T14:57:42;27.00;99.90
21047;DHT22;10682;50.874;3.656;2022-09-03T15:00:45;27.00;99.90
21047;DHT22;10682;50.874;3.656;2022-09-03T15:12:01;26.30;99.90
21047;DHT22;10682;50.874;3.656;2022-09-03T15:14:45;26.30;99.90
21047;DHT22;10682;50.874;3.656;2022-09-03T15:20:43;26.00;99.90
21047;DHT22;10682;50.874;3.656;2022-09-03T15:29:24;25.80;99.90
21047;DHT22;10682;50.874;3.656;2022-09-03T15:32:19;25.70;99.90
21047;DHT22;10682;50.874;3.656;2022-09-03T15:37:47;25.50;99.90
21047;DHT22;10682;50.874;3.656;2022-09-03T15:40:35;25.40;99.90
21047;DHT22;10682;50.874;3.656;2022-09-03T15:43:16;25.40;99.90
21047;DHT22;10682;50.874;3.656;2022-09-03T15:45:59;25.20;99.90
21047;DHT22;10682;50.874;3.656;2022-09-03T15:51:26;25.10;99.90
21047;DHT22;10682;50.874;3.656;2022-09-03T15:54:34;25.00;99.90
21047;DHT22;10682;50.874;3.656;2022-09-03T15:57:20;25.00;99.90
21047;DHT22;10682;50.874;3.656;2022-09-03T16:02:58;25.00;99.90
21047;DHT22;10682;50.874;3.656;2022-09-03T16:06:01;24.90;99.90
21047;DHT22;10682;50.874;3.656;2022-09-03T16:08:50;25.00;99.90
21047;DHT22;10682;50.874;3.656;2022-09-03T16:19:27;25.50;99.90
21047;DHT22;10682;50.874;3.656;2022-09-03T16:22:06;25.70;99.90
21047;DHT22;10682;50.874;3.656;2022-09-03T16:24:54;25.90;99.90
21047;DHT22;10682;50.874;3.656;2022-09-03T16:27:36;26.10;99.90
21047;DHT22;10682;50.874;3.656;2022-09-03T16:30:12;26.00;99.90
21047;DHT22;10682;50.874;3.656;2022-09-03T16:35:54;25.90;99.90
21047;DHT22;10682;50.874;3.656;2022-09-03T16:38:37;25.90;99.90
21047;DHT22;10682;50.874;3.656;2022-09-03T16:55:24;26.20;99.90
21047;DHT22;10682;50.874;3.656;2022-09-03T17:01:13;26.10;99.90
21047;DHT22;10682;50.874;3.656;2022-09-03T17:10:22;25.80;99.90
21047;DHT22;10682;50.874;3.656;2022-09-03T17:19:23;25.30;99.90
21047;DHT22;10682;50.874;3.656;2022-09-03T17:25:32;25.10;99.90
21047;DHT22;10682;50.874;3.656;2022-09-03T17:28:26;25.00;99.90
21047;DHT22;10682;50.874;3.656;2022-09-03T17:31:23;24.90;99.90
21047;DHT22;10682;50.874;3.656;2022-09-03T17:42:49;24.50;99.90
21047;DHT22;10682;50.874;3.656;2022-09-03T17:46:52;24.40;99.90
21047;DHT22;10682;50.874;3.656;2022-09-03T17:49:09;24.40;99.90
21047;DHT22;10682;50.874;3.656;2022-09-03T17:52:02;24.30;99.90
21047;DHT22;10682;50.874;3.656;2022-09-03T17:54:42;24.30;99.90
21047;DHT22;10682;50.874;3.656;2022-09-03T17:57:23;24.30;99.90
21047;DHT22;10682;50.874;3.656;2022-09-03T18:00:07;24.20;99.90
21047;DHT22;10682;50.874;3.656;2022-09-03T18:02:53;24.10;99.90
21047;DHT22;10682;50.874;3.656;2022-09-03T18:05:29;24.00;99.90
21047;DHT22;10682;50.874;3.656;2022-09-03T18:10:48;23.80;99.90
21047;DHT22;10682;50.874;3.656;2022-09-03T18:14:00;23.60;99.90
21047;DHT22;10682;50.874;3.656;2022-09-03T18:17:05;23.40;99.90
21047;DHT22;10682;50.874;3.656;2022-09-03T18:19:41;23.20;99.90
21047;DHT22;10682;50.874;3.656;2022-09-03T18:22:54;23.00;99.90
21047;DHT22;10682;50.874;3.656;2022-09-03T18:26:11;22.80;99.90
21047;DHT22;10682;50.874;3.656;2022-09-03T18:29:03;22.60;99.90
21047;DHT22;10682;50.874;3.656;2022-09-03T18:32:00;22.50;99.90
21047;DHT22;10682;50.874;3.656;2022-09-03T18:34:46;22.40;99.90
21047;DHT22;10682;50.874;3.656;2022-09-03T18:37:32;22.30;99.90
21047;DHT22;10682;50.874;3.656;2022-09-03T18:40:22;22.20;99.90
21047;DHT22;10682;50.874;3.656;2022-09-03T18:43:31;22.10;99.90
21047;DHT22;10682;50.874;3.656;2022-09-03T18:50:14;21.90;99.90
21047;DHT22;10682;50.874;3.656;2022-09-03T18:56:31;21.80;99.90
21047;DHT22;10682;50.874;3.656;2022-09-03T19:03:24;21.40;99.90
21047;DHT22;10682;50.874;3.656;2022-09-03T19:19:29;20.80;99.90
21047;DHT22;10682;50.874;3.656;2022-09-03T19:22:34;20.70;99.90
21047;DHT22;10682;50.874;3.656;2022-09-03T19:25:22;20.60;99.90
21047;DHT22;10682;50.874;3.656;2022-09-03T19:28:29;20.60;99.90
21047;DHT22;10682;50.874;3.656;2022-09-03T19:47:34;20.10;99.90
21047;DHT22;10682;50.874;3.656;2022-09-03T19:50:26;20.10;99.90
21047;DHT22;10682;50.874;3.656;2022-09-03T19:53:17;20.00;99.90
21047;DHT22;10682;50.874;3.656;2022-09-03T19:56:26;20.00;99.90
21047;DHT22;10682;50.874;3.656;2022-09-03T19:59:19;19.90;99.90
21047;DHT22;10682;50.874;3.656;2022-09-03T20:02:05;19.80;99.90
21047;DHT22;10682;50.874;3.656;2022-09-03T20:04:59;19.70;99.90
21047;DHT22;10682;50.874;3.656;2022-09-03T20:07:49;19.70;99.90
21047;DHT22;10682;50.874;3.656;2022-09-03T20:10:36;19.70;99.90
21047;DHT22;10682;50.874;3.656;2022-09-03T20:13:15;19.70;99.90
21047;DHT22;10682;50.874;3.656;2022-09-03T20:16:16;19.80;99.90
21047;DHT22;10682;50.874;3.656;2022-09-03T20:18:54;19.80;99.90
21047;DHT22;10682;50.874;3.656;2022-09-03T20:21:58;19.80;99.90
21047;DHT22;10682;50.874;3.656;2022-09-03T20:31:15;19.80;99.90
21047;DHT22;10682;50.874;3.656;2022-09-03T20:34:00;19.70;99.90
21047;DHT22;10682;50.874;3.656;2022-09-03T20:39:38;19.70;99.90
21047;DHT22;10682;50.874;3.656;2022-09-03T20:44:57;19.70;99.90
21047;DHT22;10682;50.874;3.656;2022-09-03T20:57:02;19.60;99.90
21047;DHT22;10682;50.874;3.656;2022-09-03T20:59:55;19.60;99.90
21047;DHT22;10682;50.874;3.656;2022-09-03T21:05:42;19.60;99.90
21047;DHT22;10682;50.874;3.656;2022-09-03T21:17:07;19.20;99.90
21047;DHT22;10682;50.874;3.656;2022-09-03T21:25:12;19.10;99.90
21047;DHT22;10682;50.874;3.656;2022-09-03T21:27:53;19.00;99.90
21047;DHT22;10682;50.874;3.656;2022-09-03T21:30:23;19.00;99.90
21047;DHT22;10682;50.874;3.656;2022-09-03T21:32:55;19.00;99.90
21047;DHT22;10682;50.874;3.656;2022-09-03T21:35:35;19.10;99.90
21047;DHT22;10682;50.874;3.656;2022-09-03T21:38:21;19.00;99.90
21047;DHT22;10682;50.874;3.656;2022-09-03T21:43:59;19.00;99.90
21047;DHT22;10682;50.874;3.656;2022-09-03T21:47:01;18.90;99.90
21047;DHT22;10682;50.874;3.656;2022-09-03T21:49:38;18.80;99.90
21047;DHT22;10682;50.874;3.656;2022-09-03T21:52:24;18.80;99.90
21047;DHT22;10682;50.874;3.656;2022-09-03T21:54:59;18.80;99.90
21047;DHT22;10682;50.874;3.656;2022-09-03T21:57:38;18.80;99.90
21047;DHT22;10682;50.874;3.656;2022-09-03T22:00:16;18.70;99.90
21047;DHT22;10682;50.874;3.656;2022-09-03T22:02:45;18.70;99.90
21047;DHT22;10682;50.874;3.656;2022-09-03T22:05:14;18.70;99.90
21047;DHT22;10682;50.874;3.656;2022-09-03T22:11:09;18.60;99.90
21047;DHT22;10682;50.874;3.656;2022-09-03T22:13:47;18.60;99.90
21047;DHT22;10682;50.874;3.656;2022-09-03T22:16:40;18.60;99.90
21047;DHT22;10682;50.874;3.656;2022-09-03T22:19:15;18.60;99.90
21047;DHT22;10682;50.874;3.656;2022-09-03T22:21:56;18.50;99.90
21047;DHT22;10682;50.874;3.656;2022-09-03T22:25:07;18.40;99.90
21047;DHT22;10682;50.874;3.656;2022-09-03T22:30:16;18.40;99.90
21047;DHT22;10682;50.874;3.656;2022-09-03T22:56:15;17.60;99.90